sensor_id;sensor_type;location;lat;lon;timestamp;pressure;altitude;pressure_sealevel;temperature;humidity
15529;BME280;7866;52.280;9.500;2023-12-20T00:02:12;99919.59;;;7.86;100.00
15529;BME280;7866;52.280;9.500;2023-12-20T00:07:15;99922.72;;;7.82;100.00
15529;BME280;7866;52.280;9.500;2023-12-20T00:12:17;99928.72;;;7.84;100.00
15529;BME280;7866;52.280;9.500;2023-12-20T00:17:18;99938.00;;;7.72;100.00
15529;BME280;7866;52.280;9.500;2023-12-20T00:22:21;99933.97;;;7.59;100.00
15529;BME280;7866;52.280;9.500;2023-12-20T00:27:23;99951.28;;;7.55;100.00
15529;BME280;7866;52.280;9.500;2023-12-20T00:32:25;99954.19;;;7.44;100.00
15529;BME280;7866;52.280;9.500;2023-12-20T00:37:28;99948.88;;;7.44;100.00
15529;BME280;7866;52.280;9.500;2023-12-20T00:42:29;99958.75;;;7.26;100.00
15529;BME280;7866;52.280;9.500;2023-12-20T00:47:31;99963.25;;;7.25;100.00
15529;BME280;7866;52.280;9.500;2023-12-20T00:52:34;99957.56;;;7.20;100.00
15529;BME280;7866;52.280;9.500;2023-12-20T00:57:36;99956.03;;;7.18;100.00
15529;BME280;7866;52.280;9.500;2023-12-20T01:02:37;99948.44;;;7.23;100.00
15529;BME280;7866;52.280;9.500;2023-12-20T01:07:40;99947.38;;;7.15;100.00
15529;BME280;7866;52.280;9.500;2023-12-20T01:12:43;99940.56;;;7.21;100.00
15529;BME280;7866;52.280;9.500;2023-12-20T01:17:44;99952.94;;;7.22;100.00
15529;BME280;7866;52.280;9.500;2023-12-20T01:22:47;99951.22;;;7.21;100.00
15529;BME280;7866;52.280;9.500;2023-12-20T01:27:49;99958.25;;;7.22;100.00
15529;BME280;7866;52.280;9.500;2023-12-20T01:32:51;99962.41;;;7.25;100.00
15529;BME280;7866;52.280;9.500;2023-12-20T01:37:54;99973.72;;;7.19;100.00
15529;BME280;7866;52.280;9.500;2023-12-20T01:43:00;99965.56;;;7.20;100.00
15529;BME280;7866;52.280;9.500;2023-12-20T01:48:02;99958.88;;;7.16;99.60
15529;BME280;7866;52.280;9.500;2023-12-20T01:53:07;99964.13;;;7.08;99.53
15529;BME280;7866;52.280;9.500;2023-12-20T01:58:11;99959.59;;;7.00;99.40
15529;BME280;7866;52.280;9.500;2023-12-20T02:03:13;99953.91;;;6.95;99.29
15529;BME280;7866;52.280;9.500;2023-12-20T02:08:16;99954.16;;;6.84;99.46
15529;BME280;7866;52.280;9.500;2023-12-20T02:13:18;99953.16;;;6.85;98.60
15529;BME280;7866;52.280;9.500;2023-12-20T02:18:20;99938.78;;;6.78;99.23
15529;BME280;7866;52.280;9.500;2023-12-20T02:23:23;99922.16;;;6.76;99.02
15529;BME280;7866;52.280;9.500;2023-12-20T02:28:24;99919.13;;;6.71;99.36
15529;BME280;7866;52.280;9.500;2023-12-20T02:33:26;99936.16;;;6.60;99.00
15529;BME280;7866;52.280;9.500;2023-12-20T02:38:29;99926.72;;;6.65;99.07
15529;BME280;7866;52.280;9.500;2023-12-20T02:43:31;99919.34;;;6.59;98.42
15529;BME280;7866;52.280;9.500;2023-12-20T02:48:33;99919.50;;;6.58;98.83
15529;BME280;7866;52.280;9.500;2023-12-20T02:53:36;99924.16;;;6.56;99.12
15529;BME280;7866;52.280;9.500;2023-12-20T02:58:38;99922.03;;;6.59;98.06
15529;BME280;7866;52.280;9.500;2023-12-20T03:03:39;99917.47;;;6.52;97.79
15529;BME280;7866;52.280;9.500;2023-12-20T03:08:42;99905.28;;;6.49;98.06
15529;BME280;7866;52.280;9.500;2023-12-20T03:13:44;99904.09;;;6.44;98.12
15529;BME280;7866;52.280;9.500;2023-12-20T03:18:45;99890.56;;;6.37;99.30
15529;BME280;7866;52.280;9.500;2023-12-20T03:23:48;99892.22;;;6.38;99.10
15529;BME280;7866;52.280;9.500;2023-12-20T03:28:50;99885.13;;;6.38;99.65
15529;BME280;7866;52.280;9.500;2023-12-20T03:33:52;99871.28;;;6.35;99.07
15529;BME280;7866;52.280;9.500;2023-12-20T03:38:55;99861.09;;;6.30;100.00
15529;BME280;7866;52.280;9.500;2023-12-20T03:43:57;99873.78;;;6.36;99.97
15529;BME280;7866;52.280;9.500;2023-12-20T03:48:58;99869.00;;;6.40;99.59
15529;BME280;7866;52.280;9.500;2023-12-20T03:54:01;99847.25;;;6.45;100.00
15529;BME280;7866;52.280;9.500;2023-12-20T03:59:03;99849.59;;;6.48;99.96
15529;BME280;7866;52.280;9.500;2023-12-20T04:04:05;99847.06;;;6.46;98.79
15529;BME280;7866;52.280;9.500;2023-12-20T04:09:08;99847.53;;;6.41;98.94
15529;BME280;7866;52.280;9.500;2023-12-20T04:14:10;99851.72;;;6.44;98.72
15529;BME280;7866;52.280;9.500;2023-12-20T04:19:12;99854.16;;;6.55;98.32
15529;BME280;7866;52.280;9.500;2023-12-20T04:24:15;99851.97;;;6.51;98.31
15529;BME280;7866;52.280;9.500;2023-12-20T04:29:16;99850.78;;;6.53;97.56
15529;BME280;7866;52.280;9.500;2023-12-20T04:34:18;99835.13;;;6.50;97.41
15529;BME280;7866;52.280;9.500;2023-12-20T04:39:21;99836.84;;;6.51;97.34
15529;BME280;7866;52.280;9.500;2023-12-20T04:44:23;99832.88;;;6.55;97.23
15529;BME280;7866;52.280;9.500;2023-12-20T04:49:25;99822.22;;;6.55;97.72
15529;BME280;7866;52.280;9.500;2023-12-20T04:54:27;99823.41;;;6.61;96.92
15529;BME280;7866;52.280;9.500;2023-12-20T04:59:29;99839.38;;;6.61;97.70
15529;BME280;7866;52.280;9.500;2023-12-20T05:04:31;99836.59;;;6.62;97.30
15529;BME280;7866;52.280;9.500;2023-12-20T05:09:34;99833.91;;;6.62;97.29
15529;BME280;7866;52.280;9.500;2023-12-20T05:14:36;99837.59;;;6.70;96.45
15529;BME280;7866;52.280;9.500;2023-12-20T05:19:37;99839.28;;;6.71;96.63
15529;BME280;7866;52.280;9.500;2023-12-20T05:24:40;99850.91;;;6.70;95.99
15529;BME280;7866;52.280;9.500;2023-12-20T05:29:42;99836.16;;;6.75;96.17
15529;BME280;7866;52.280;9.500;2023-12-20T05:34:43;99834.47;;;6.74;96.57
15529;BME280;7866;52.280;9.500;2023-12-20T05:39:46;99840.53;;;6.58;98.26
15529;BME280;7866;52.280;9.500;2023-12-20T05:44:48;99832.56;;;6.58;99.18
15529;BME280;7866;52.280;9.500;2023-12-20T05:49:49;99838.50;;;6.52;99.98
15529;BME280;7866;52.280;9.500;2023-12-20T05:54:52;99839.78;;;6.48;100.00
15529;BME280;7866;52.280;9.500;2023-12-20T05:59:54;99838.59;;;6.43;100.00
15529;BME280;7866;52.280;9.500;2023-12-20T06:04:56;99827.44;;;6.39;100.00
15529;BME280;7866;52.280;9.500;2023-12-20T06:09:59;99835.53;;;6.37;100.00
15529;BME280;7866;52.280;9.500;2023-12-20T06:15:01;99841.41;;;6.41;100.00
15529;BME280;7866;52.280;9.500;2023-12-20T06:20:03;99832.94;;;6.46;100.00
15529;BME280;7866;52.280;9.500;2023-12-20T06:25:09;99835.94;;;6.43;100.00
15529;BME280;7866;52.280;9.500;2023-12-20T06:30:11;99833.59;;;6.39;100.00
15529;BME280;7866;52.280;9.500;2023-12-20T06:35:13;99833.59;;;6.39;100.00
15529;BME280;7866;52.280;9.500;2023-12-20T06:40:16;99844.28;;;6.48;100.00
15529;BME280;7866;52.280;9.500;2023-12-20T06:45:18;99824.06;;;6.37;100.00
15529;BME280;7866;52.280;9.500;2023-12-20T06:50:19;99822.06;;;6.31;100.00
15529;BME280;7866;52.280;9.500;2023-12-20T06:55:22;99821.72;;;6.34;100.00
15529;BME280;7866;52.280;9.500;2023-12-20T07:00:24;99827.03;;;6.34;100.00
15529;BME280;7866;52.280;9.500;2023-12-20T07:05:26;99817.75;;;6.38;100.00
15529;BME280;7866;52.280;9.500;2023-12-20T07:10:29;99817.38;;;6.51;100.00
15529;BME280;7866;52.280;9.500;2023-12-20T07:15:30;99808.34;;;6.44;100.00
15529;BME280;7866;52.280;9.500;2023-12-20T07:20:32;99800.00;;;6.38;100.00
15529;BME280;7866;52.280;9.500;2023-12-20T07:25:35;99803.84;;;6.44;100.00
15529;BME280;7866;52.280;9.500;2023-12-20T07:30:37;99822.00;;;6.49;99.53
15529;BME280;7866;52.280;9.500;2023-12-20T07:35:38;99820.19;;;6.49;100.00
15529;BME280;7866;52.280;9.500;2023-12-20T07:40:41;99792.09;;;6.47;100.00
15529;BME280;7866;52.280;9.500;2023-12-20T07:45:43;99804.22;;;6.49;100.00
15529;BME280;7866;52.280;9.500;2023-12-20T07:50:45;99794.78;;;6.55;99.79
15529;BME280;7866;52.280;9.500;2023-12-20T07:55:48;99797.91;;;6.50;100.00
15529;BME280;7866;52.280;9.500;2023-12-20T08:00:49;99810.06;;;6.53;100.00
15529;BME280;7866;52.280;9.500;2023-12-20T08:05:51;99803.44;;;6.57;100.00
15529;BME280;7866;52.280;9.500;2023-12-20T08:10:54;99811.34;;;6.66;99.35
15529;BME280;7866;52.280;9.500;2023-12-20T08:15:57;99809.50;;;6.67;99.79
15529;BME280;7866;52.280;9.500;2023-12-20T08:20:59;99806.16;;;6.65;99.62
15529;BME280;7866;52.280;9.500;2023-12-20T08:26:05;99795.66;;;6.63;99.43
15529;BME280;7866;52.280;9.500;2023-12-20T08:31:13;99783.72;;;6.68;99.37
15529;BME280;7866;52.280;9.500;2023-12-20T08:36:15;99787.38;;;6.66;99.57
15529;BME280;7866;52.280;9.500;2023-12-20T08:41:19;99788.41;;;6.74;98.96
15529;BME280;7866;52.280;9.500;2023-12-20T08:46:21;99774.66;;;6.78;99.00
15529;BME280;7866;52.280;9.500;2023-12-20T08:51:23;99767.16;;;6.82;98.33
15529;BME280;7866;52.280;9.500;2023-12-20T08:56:27;99781.16;;;6.84;97.71
15529;BME280;7866;52.280;9.500;2023-12-20T09:01:28;99763.81;;;6.80;97.99
15529;BME280;7866;52.280;9.500;2023-12-20T09:06:30;99767.50;;;6.79;98.68
15529;BME280;7866;52.280;9.500;2023-12-20T09:11:33;99740.03;;;6.78;98.91
15529;BME280;7866;52.280;9.500;2023-12-20T09:16:35;99748.56;;;6.90;98.70
15529;BME280;7866;52.280;9.500;2023-12-20T09:21:36;99725.47;;;6.90;98.26
15529;BME280;7866;52.280;9.500;2023-12-20T09:26:39;99746.09;;;6.97;97.55
15529;BME280;7866;52.280;9.500;2023-12-20T09:31:42;99736.59;;;6.94;96.41
15529;BME280;7866;52.280;9.500;2023-12-20T09:36:46;99712.19;;;6.99;95.99
15529;BME280;7866;52.280;9.500;2023-12-20T09:41:58;99708.03;;;7.12;95.64
15529;BME280;7866;52.280;9.500;2023-12-20T09:47:03;99713.53;;;7.11;95.31
15529;BME280;7866;52.280;9.500;2023-12-20T09:52:06;99712.25;;;7.23;93.90
15529;BME280;7866;52.280;9.500;2023-12-20T09:57:10;99700.56;;;7.24;93.44
15529;BME280;7866;52.280;9.500;2023-12-20T10:02:13;99711.75;;;7.28;93.44
15529;BME280;7866;52.280;9.500;2023-12-20T10:07:15;99710.75;;;7.29;93.59
15529;BME280;7866;52.280;9.500;2023-12-20T10:12:18;99721.06;;;7.32;93.88
15529;BME280;7866;52.280;9.500;2023-12-20T10:17:21;99701.09;;;7.28;94.35
15529;BME280;7866;52.280;9.500;2023-12-20T10:22:23;99699.44;;;7.27;94.81
15529;BME280;7866;52.280;9.500;2023-12-20T10:27:27;99693.13;;;7.36;94.81
15529;BME280;7866;52.280;9.500;2023-12-20T10:32:28;99690.75;;;7.25;94.70
15529;BME280;7866;52.280;9.500;2023-12-20T10:37:30;99693.59;;;7.23;95.52
15529;BME280;7866;52.280;9.500;2023-12-20T10:42:33;99681.78;;;7.34;95.07
15529;BME280;7866;52.280;9.500;2023-12-20T10:47:38;99687.78;;;7.28;94.66
15529;BME280;7866;52.280;9.500;2023-12-20T10:52:41;99688.63;;;7.36;94.77
15529;BME280;7866;52.280;9.500;2023-12-20T10:57:46;99704.09;;;7.33;95.07
15529;BME280;7866;52.280;9.500;2023-12-20T11:02:51;99685.75;;;7.30;95.92
15529;BME280;7866;52.280;9.500;2023-12-20T11:07:58;99681.94;;;7.16;98.41
15529;BME280;7866;52.280;9.500;2023-12-20T11:13:10;99671.59;;;7.13;99.71
15529;BME280;7866;52.280;9.500;2023-12-20T11:18:14;99659.47;;;7.19;100.00
15529;BME280;7866;52.280;9.500;2023-12-20T11:23:16;99656.63;;;7.20;100.00
15529;BME280;7866;52.280;9.500;2023-12-20T11:28:23;99661.31;;;7.26;100.00
15529;BME280;7866;52.280;9.500;2023-12-20T11:33:26;99654.16;;;7.27;100.00
15529;BME280;7866;52.280;9.500;2023-12-20T11:38:36;99655.00;;;7.35;100.00
15529;BME280;7866;52.280;9.500;2023-12-20T11:43:39;99659.63;;;7.33;100.00
15529;BME280;7866;52.280;9.500;2023-12-20T11:48:40;99713.91;;;7.32;99.58
15529;BME280;7866;52.280;9.500;2023-12-20T11:53:51;99739.06;;;5.65;95.57
15529;BME280;7866;52.280;9.500;2023-12-20T11:58:55;99736.66;;;4.91;98.57
15529;BME280;7866;52.280;9.500;2023-12-20T12:04:03;99737.56;;;4.72;100.00
15529;BME280;7866;52.280;9.500;2023-12-20T12:09:05;99737.41;;;5.01;100.00
15529;BME280;7866;52.280;9.500;2023-12-20T12:14:09;99714.59;;;5.08;100.00
15529;BME280;7866;52.280;9.500;2023-12-20T12:19:20;99674.88;;;5.16;100.00
15529;BME280;7866;52.280;9.500;2023-12-20T12:24:22;99687.47;;;5.32;100.00
15529;BME280;7866;52.280;9.500;2023-12-20T12:29:25;99704.31;;;5.41;100.00
15529;BME280;7866;52.280;9.500;2023-12-20T12:34:27;99678.00;;;5.30;97.71
15529;BME280;7866;52.280;9.500;2023-12-20T12:39:29;99660.78;;;5.34;94.78
15529;BME280;7866;52.280;9.500;2023-12-20T12:44:32;99665.78;;;5.55;94.87
15529;BME280;7866;52.280;9.500;2023-12-20T12:49:34;99655.66;;;5.76;96.46
15529;BME280;7866;52.280;9.500;2023-12-20T12:54:35;99649.91;;;5.89;96.54
15529;BME280;7866;52.280;9.500;2023-12-20T12:59:39;99642.19;;;5.96;97.79
15529;BME280;7866;52.280;9.500;2023-12-20T13:04:41;99649.25;;;6.13;97.08
15529;BME280;7866;52.280;9.500;2023-12-20T13:09:43;99626.72;;;6.25;96.83
15529;BME280;7866;52.280;9.500;2023-12-20T13:14:48;99628.44;;;6.34;97.25
15529;BME280;7866;52.280;9.500;2023-12-20T13:19:50;99628.00;;;6.47;96.95
15529;BME280;7866;52.280;9.500;2023-12-20T13:24:52;99632.84;;;6.52;96.05
15529;BME280;7866;52.280;9.500;2023-12-20T13:29:55;99636.34;;;6.60;95.29
15529;BME280;7866;52.280;9.500;2023-12-20T13:34:57;99646.81;;;6.62;95.08
15529;BME280;7866;52.280;9.500;2023-12-20T13:39:58;99630.84;;;6.54;95.87
15529;BME280;7866;52.280;9.500;2023-12-20T13:45:02;99634.22;;;6.64;95.13
15529;BME280;7866;52.280;9.500;2023-12-20T13:50:05;99634.00;;;6.57;94.58
15529;BME280;7866;52.280;9.500;2023-12-20T13:55:08;99631.22;;;6.59;93.96
15529;BME280;7866;52.280;9.500;2023-12-20T14:00:13;99616.22;;;6.58;92.62
15529;BME280;7866;52.280;9.500;2023-12-20T14:05:15;99616.59;;;6.63;91.04
15529;BME280;7866;52.280;9.500;2023-12-20T14:10:18;99629.72;;;6.64;91.71
15529;BME280;7866;52.280;9.500;2023-12-20T14:15:21;99628.38;;;6.60;90.62
15529;BME280;7866;52.280;9.500;2023-12-20T14:20:25;99638.19;;;6.60;89.88
15529;BME280;7866;52.280;9.500;2023-12-20T14:25:27;99630.84;;;6.62;89.60
15529;BME280;7866;52.280;9.500;2023-12-20T14:30:30;99638.19;;;6.60;90.04
15529;BME280;7866;52.280;9.500;2023-12-20T14:35:32;99649.97;;;6.57;89.92
15529;BME280;7866;52.280;9.500;2023-12-20T14:40:34;99646.34;;;6.58;89.26
15529;BME280;7866;52.280;9.500;2023-12-20T14:45:37;99652.16;;;6.62;90.04
15529;BME280;7866;52.280;9.500;2023-12-20T14:50:38;99652.81;;;6.56;89.36
15529;BME280;7866;52.280;9.500;2023-12-20T14:55:41;99644.66;;;6.57;88.62
15529;BME280;7866;52.280;9.500;2023-12-20T15:00:43;99644.53;;;6.67;88.32
15529;BME280;7866;52.280;9.500;2023-12-20T15:05:45;99654.66;;;6.63;88.96
15529;BME280;7866;52.280;9.500;2023-12-20T15:10:48;99659.16;;;6.63;86.73
15529;BME280;7866;52.280;9.500;2023-12-20T15:15:52;99667.28;;;6.61;87.20
15529;BME280;7866;52.280;9.500;2023-12-20T15:20:53;99662.63;;;6.55;86.72
15529;BME280;7866;52.280;9.500;2023-12-20T15:25:55;99672.25;;;6.56;85.22
15529;BME280;7866;52.280;9.500;2023-12-20T15:30:58;99674.19;;;6.46;84.92
15529;BME280;7866;52.280;9.500;2023-12-20T15:36:00;99665.19;;;6.39;85.14
15529;BME280;7866;52.280;9.500;2023-12-20T15:41:01;99672.75;;;6.26;87.17
15529;BME280;7866;52.280;9.500;2023-12-20T15:46:04;99673.53;;;6.18;88.31
15529;BME280;7866;52.280;9.500;2023-12-20T15:51:07;99678.81;;;6.10;89.24
15529;BME280;7866;52.280;9.500;2023-12-20T15:56:09;99679.16;;;6.07;90.63
15529;BME280;7866;52.280;9.500;2023-12-20T16:01:12;99673.25;;;5.95;91.61
15529;BME280;7866;52.280;9.500;2023-12-20T16:06:14;99671.16;;;5.89;92.37
15529;BME280;7866;52.280;9.500;2023-12-20T16:11:16;99672.78;;;5.82;94.11
15529;BME280;7866;52.280;9.500;2023-12-20T16:16:19;99657.78;;;5.73;94.25
15529;BME280;7866;52.280;9.500;2023-12-20T16:21:21;99663.91;;;5.73;95.25
15529;BME280;7866;52.280;9.500;2023-12-20T16:26:22;99653.16;;;5.75;96.52
15529;BME280;7866;52.280;9.500;2023-12-20T16:31:25;99662.84;;;5.84;96.45
15529;BME280;7866;52.280;9.500;2023-12-20T16:36:48;99659.72;;;5.88;96.63
15529;BME280;7866;52.280;9.500;2023-12-20T16:41:50;99657.06;;;5.88;97.20
15529;BME280;7866;52.280;9.500;2023-12-20T16:46:53;99664.59;;;5.93;97.76
15529;BME280;7866;52.280;9.500;2023-12-20T16:51:55;99666.13;;;5.96;97.77
15529;BME280;7866;52.280;9.500;2023-12-20T16:56:57;99658.56;;;5.91;98.14
15529;BME280;7866;52.280;9.500;2023-12-20T17:02:00;99653.41;;;5.89;99.18
15529;BME280;7866;52.280;9.500;2023-12-20T17:07:03;99660.72;;;5.87;99.64
15529;BME280;7866;52.280;9.500;2023-12-20T17:12:06;99638.56;;;5.79;99.97
15529;BME280;7866;52.280;9.500;2023-12-20T17:17:09;99656.16;;;5.80;100.00
15529;BME280;7866;52.280;9.500;2023-12-20T17:22:11;99649.50;;;5.76;100.00
15529;BME280;7866;52.280;9.500;2023-12-20T17:27:12;99651.16;;;5.77;100.00
15529;BME280;7866;52.280;9.500;2023-12-20T17:32:15;99643.88;;;5.79;100.00
15529;BME280;7866;52.280;9.500;2023-12-20T17:37:17;99642.88;;;5.80;100.00
15529;BME280;7866;52.280;9.500;2023-12-20T17:42:19;99632.88;;;5.74;100.00
15529;BME280;7866;52.280;9.500;2023-12-20T17:47:22;99629.25;;;5.75;100.00
15529;BME280;7866;52.280;9.500;2023-12-20T17:52:25;99607.34;;;5.81;100.00
15529;BME280;7866;52.280;9.500;2023-12-20T17:57:26;99609.47;;;5.77;100.00
15529;BME280;7866;52.280;9.500;2023-12-20T18:02:29;99585.56;;;5.77;100.00
15529;BME280;7866;52.280;9.500;2023-12-20T18:07:31;99585.22;;;5.72;100.00
15529;BME280;7866;52.280;9.500;2023-12-20T18:12:32;99568.97;;;5.75;100.00
15529;BME280;7866;52.280;9.500;2023-12-20T18:17:35;99558.19;;;5.77;100.00
15529;BME280;7866;52.280;9.500;2023-12-20T18:22:37;99554.56;;;5.86;100.00
15529;BME280;7866;52.280;9.500;2023-12-20T18:27:39;99546.13;;;5.90;100.00
15529;BME280;7866;52.280;9.500;2023-12-20T18:32:42;99549.69;;;5.99;100.00
15529;BME280;7866;52.280;9.500;2023-12-20T18:37:43;99544.56;;;6.06;100.00
15529;BME280;7866;52.280;9.500;2023-12-20T18:42:45;99529.63;;;6.13;100.00
15529;BME280;7866;52.280;9.500;2023-12-20T18:47:48;99527.31;;;6.18;100.00
15529;BME280;7866;52.280;9.500;2023-12-20T18:52:50;99513.06;;;6.19;100.00
15529;BME280;7866;52.280;9.500;2023-12-20T18:57:51;99499.28;;;6.32;100.00
15529;BME280;7866;52.280;9.500;2023-12-20T19:02:54;99480.53;;;6.41;100.00
15529;BME280;7866;52.280;9.500;2023-12-20T19:07:57;99474.38;;;6.49;100.00
15529;BME280;7866;52.280;9.500;2023-12-20T19:12:59;99457.09;;;6.61;100.00
15529;BME280;7866;52.280;9.500;2023-12-20T19:18:02;99442.16;;;6.69;100.00
15529;BME280;7866;52.280;9.500;2023-12-20T19:23:04;99441.00;;;6.79;100.00
15529;BME280;7866;52.280;9.500;2023-12-20T19:28:07;99437.81;;;6.84;100.00
15529;BME280;7866;52.280;9.500;2023-12-20T19:33:10;99433.50;;;6.99;100.00
15529;BME280;7866;52.280;9.500;2023-12-20T19:38:11;99418.34;;;7.08;100.00
15529;BME280;7866;52.280;9.500;2023-12-20T19:43:13;99408.81;;;7.13;100.00
15529;BME280;7866;52.280;9.500;2023-12-20T19:48:16;99389.00;;;7.24;100.00
15529;BME280;7866;52.280;9.500;2023-12-20T19:53:18;99376.19;;;7.28;100.00
15529;BME280;7866;52.280;9.500;2023-12-20T19:58:19;99367.19;;;7.29;100.00
15529;BME280;7866;52.280;9.500;2023-12-20T20:03:22;99351.16;;;7.37;100.00
15529;BME280;7866;52.280;9.500;2023-12-20T20:08:24;99340.84;;;7.42;100.00
15529;BME280;7866;52.280;9.500;2023-12-20T20:13:26;99333.00;;;7.40;100.00
15529;BME280;7866;52.280;9.500;2023-12-20T20:18:29;99307.19;;;7.41;100.00
15529;BME280;7866;52.280;9.500;2023-12-20T20:23:30;99288.16;;;7.52;100.00
15529;BME280;7866;52.280;9.500;2023-12-20T20:28:32;99277.50;;;7.52;100.00
15529;BME280;7866;52.280;9.500;2023-12-20T20:33:35;99264.00;;;7.54;100.00
15529;BME280;7866;52.280;9.500;2023-12-20T20:38:37;99268.34;;;7.55;100.00
15529;BME280;7866;52.280;9.500;2023-12-20T20:43:38;99251.81;;;7.59;100.00
15529;BME280;7866;52.280;9.500;2023-12-20T20:48:41;99245.47;;;7.60;100.00
15529;BME280;7866;52.280;9.500;2023-12-20T20:53:43;99236.78;;;7.67;100.00
15529;BME280;7866;52.280;9.500;2023-12-20T20:58:44;99221.44;;;7.69;100.00
15529;BME280;7866;52.280;9.500;2023-12-20T21:03:48;99228.41;;;7.70;100.00
15529;BME280;7866;52.280;9.500;2023-12-20T21:08:50;99215.09;;;7.70;100.00
15529;BME280;7866;52.280;9.500;2023-12-20T21:13:54;99195.06;;;7.74;100.00
15529;BME280;7866;52.280;9.500;2023-12-20T21:18:57;99199.41;;;7.75;100.00
15529;BME280;7866;52.280;9.500;2023-12-20T21:23:58;99194.56;;;7.78;100.00
15529;BME280;7866;52.280;9.500;2023-12-20T21:29:00;99168.56;;;7.80;100.00
15529;BME280;7866;52.280;9.500;2023-12-20T21:34:03;99160.00;;;7.85;100.00
15529;BME280;7866;52.280;9.500;2023-12-20T21:39:05;99136.31;;;7.90;100.00
15529;BME280;7866;52.280;9.500;2023-12-20T21:44:08;99123.97;;;7.89;100.00
15529;BME280;7866;52.280;9.500;2023-12-20T21:49:11;99121.63;;;7.94;100.00
15529;BME280;7866;52.280;9.500;2023-12-20T21:54:12;99106.06;;;7.98;100.00
15529;BME280;7866;52.280;9.500;2023-12-20T21:59:14;99108.38;;;8.01;100.00
15529;BME280;7866;52.280;9.500;2023-12-20T22:04:18;99107.00;;;8.05;100.00
15529;BME280;7866;52.280;9.500;2023-12-20T22:09:19;99107.09;;;8.11;100.00
15529;BME280;7866;52.280;9.500;2023-12-20T22:14:22;99098.75;;;8.14;100.00
15529;BME280;7866;52.280;9.500;2023-12-20T22:19:27;99107.00;;;8.20;100.00
15529;BME280;7866;52.280;9.500;2023-12-20T22:24:31;99107.72;;;8.28;100.00
15529;BME280;7866;52.280;9.500;2023-12-20T22:29:33;99104.91;;;8.30;100.00
15529;BME280;7866;52.280;9.500;2023-12-20T22:34:36;99099.09;;;8.26;100.00
15529;BME280;7866;52.280;9.500;2023-12-20T22:39:37;99091.72;;;8.28;100.00
15529;BME280;7866;52.280;9.500;2023-12-20T22:44:39;99072.50;;;8.33;100.00
15529;BME280;7866;52.280;9.500;2023-12-20T22:49:42;99077.66;;;8.34;100.00
15529;BME280;7866;52.280;9.500;2023-12-20T22:54:44;99078.28;;;8.36;100.00
15529;BME280;7866;52.280;9.500;2023-12-20T22:59:45;99087.16;;;8.37;100.00
15529;BME280;7866;52.280;9.500;2023-12-20T23:04:48;99067.56;;;8.30;100.00
15529;BME280;7866;52.280;9.500;2023-12-20T23:09:50;99079.31;;;8.35;100.00
15529;BME280;7866;52.280;9.500;2023-12-20T23:14:52;99061.66;;;8.34;100.00
15529;BME280;7866;52.280;9.500;2023-12-20T23:19:55;99058.47;;;8.39;100.00
15529;BME280;7866;52.280;9.500;2023-12-20T23:24:57;99051.75;;;8.43;100.00
15529;BME280;7866;52.280;9.500;2023-12-20T23:29:58;99038.75;;;8.40;100.00
15529;BME280;7866;52.280;9.500;2023-12-20T23:35:01;99030.03;;;8.46;100.00
15529;BME280;7866;52.280;9.500;2023-12-20T23:40:04;99009.88;;;8.44;100.00
15529;BME280;7866;52.280;9.500;2023-12-20T23:45:07;98990.63;;;8.48;100.00
15529;BME280;7866;52.280;9.500;2023-12-20T23:50:10;99009.13;;;8.50;100.00
15529;BME280;7866;52.280;9.500;2023-12-20T23:55:12;98993.75;;;8.52;100.00
